嘉手納 の空港の天気 - METARとTAF

嘉手納基地 ( RODN / DNA ) - 沖縄県沖縄市
飛行場実況気象(Metar)
観測時間04/24 20:56 JST (04/24 11:56 UTC)
風向・風速西北西 3m/s
視程8050m
天気現象強い雷雨 もや
全天を覆う雲 雲底高度 340m
気温21.9℃
湿度94%
気圧1010.4hPa
METARRODN 241156Z AUTO 29005KT 5SM +TSRA BR OVC011 22/21 A2982 RMK AO2 PK WND 25027/03 VIS 2 3/4 RWY05 RAB06 TSB24 CIG 001 RWY05 SLP104 P0043 60054 T02190209 10273 20219 52017 $
過去の天気等 Google飛行場航空写真 Wunderground天気予報

過去48時間のMETAR

飛行場予報(TAF)
発表時間: 4/24 20:53 JST (4/24 11:53 UTC)
予報対象時間: 24日20時 JST ~ 25日23時 JST
風向・風速南西 6m/s
視程8,000m
天気現象弱いしゅう雨 周辺で雷
全天の8割程度の積乱雲 雲底高度 370m
24日20時 JST ~ 24日23時 JST に一時的に
視程4,800m
天気現象弱い雷雨
全天の8割程度の積乱雲 雲底高度 240m
25日9時 JST ~ 25日10時 JST に徐々に
風向・風速北北西 5m/s
視程10km以上
天気現象運行に影響にある天気現象が終了
全天の8割程度の雲 雲底高度 910m
TAF AMD RODN 241153Z 2411/2514 23012KT 8000 -SHRA VCTS BKN012CB QNH2977INS
TEMPO 2411/2414 4800 -TSRA BKN008CB
BECMG 2500/2501 33009KT 9999 NSW BKN030 QNH2985INS TX26/2508Z TN20/2421Z
日本の空港のMETAR・TAFへのリンク

RJTT 東京国際空港
RJAA 新東京国際空港
RJBB 関西国際空港
RJOO 大阪空港
RJGG 中部国際空港
RJCC 新千歳空港
RJFF 福岡空港
ROAH 那覇空港


RJEC 旭川空港
RJCH 函館空港
RJCK 釧路空港
RJCM 女満別空港
RJCB 帯広空港
RJSA 青森空港
RJSS 仙台空港
RJSK 秋田空港
RJSF 福島空港
RJAH 茨城空港
RJSN 新潟空港
RJNT 富山空港
RJNK 小松飛行場
RJNS 静岡空港
RJOH 美保飛行場
RJOC 出雲空港
RJOB 岡山空港
RJOA 広島空港
RJOI 岩国飛行場
RJOT 高松空港
RJOM 松山空港
RJOK 高知空港
RJFR 北九州空港
RJFT 熊本空港
RJFU 長崎空港
RJFS 佐賀空港
RJFO 大分空港
RJFM 宮崎空港
RJFK 鹿児島空港
ROIG 石垣島空港
RJTY 横田飛行場
ROTM 普天間飛行場
RODN 嘉手納飛行場